トロント/ピアソン の空港の天気 - METARとTAF

トロント・ピアソン国際空港 ( CYYZ / YYZ ) - カナダ オンタリオ州トロント
飛行場実況気象(Metar)
観測時間10/19 14:00 EDT (10/19 18:00 UTC)
風向・風速西南西 6m/s 瞬間風速9m/s
視程10km以上
天気現象
全天の8割程度の雲 雲底高度 5490m
全天を覆う雲 雲底高度 6710m
気温16℃
湿度45%
気圧1013.7hPa
METARCYYZ 191800Z 24011G17KT 15SM BKN180 OVC220 16/04 A2992 RMK AS6CC2 SLP137 DENSITY ALT 800FT
過去の天気等 Google飛行場航空写真 Wunderground天気予報

過去48時間のMETAR

飛行場予報(TAF)
発表時間: 10/19 13:40 EDT (10/19 17:40 UTC)
予報対象時間: 19日14時 EDT ~ 20日20時 EDT
風向・風速南西 8m/s 瞬間風速 15m/s
視程10km以上
全天の8割程度の雲 雲底高度 7010m
19日19時 EDT から
風向・風速南西 8m/s 瞬間風速 13m/s
視程10km以上
全天の8割程度の雲 雲底高度 2440m
全天を覆う雲 雲底高度 4570m
19日22時 EDT から
風向・風速南西 9m/s 瞬間風速 14m/s
視程10km以上
天気現象弱い雨
全天を覆う雲 雲底高度 1220m
20日1時 EDT から
風向・風速南西 8m/s 瞬間風速 13m/s
視程10km以上
天気現象弱い雨
全天を覆う雲 雲底高度 610m
20日1時 EDT ~ 20日4時 EDT に一時的に
全天を覆う雲 雲底高度 760m
20日4時 EDT から
風向・風速西 6m/s 瞬間風速 13m/s
視程10km以上
全天の8割程度の雲 雲底高度 910m
全天の8割程度の雲 雲底高度 1520m
20日13時 EDT から
風向・風速西 8m/s 瞬間風速 14m/s
視程10km以上
天気現象弱いしゅう雨
全天の8割程度の雲 雲底高度 910m
全天の8割程度の雲 雲底高度 1520m
20日18時 EDT から
風向・風速北北西 8m/s
視程10km以上
全天の4割程度の雲 雲底高度 910m
全天の8割程度の雲 雲底高度 1520m
TAF CYYZ 191740Z 1918/2024 23015G30KT P6SM BKN230
FM192300 23015G25KT P6SM BKN080 OVC150
FM200200 23018G28KT P6SM -RA OVC040
FM200500 23015G25KT P6SM -RA OVC020
TEMPO 2005/2008 OVC025
FM200800 28012G25KT P6SM BKN030 BKN050
FM201700 28015G28KT P6SM -SHRA BKN030 BKN050
FM202200 33015KT P6SM SCT030 BKN050 RMK NXT FCST BY 192100Z